Time;durP1;ratioP1;P1;durP2;ratioP2;P2;SDS_P1;SDS_P2;PMS_P1;PMS_P2;Temp;Humidity;BMP_temperature;BMP_pressure;BME280_temperature;BME280_humidity;BME280_pressure;Samples;Min_cycle;Max_cycle;Signal;HPM_P1;HPM_P2
2022/01/12 00:00:07;;;;;;;45.13;16.47;;;;;;;-5.59;100.00;100532.66;4807009;29;20026;-69
2022/01/12 00:02:32;;;;;;;41.65;15.40;;;;;;;-5.56;100.00;100532.53;4807252;29;20027;-68
2022/01/12 00:04:58;;;;;;;48.17;17.67;;;;;;;-5.50;100.00;100536.63;4807209;29;20183;-68
2022/01/12 00:07:24;;;;;;;46.73;16.97;;;;;;;-5.52;100.00;100536.69;4807146;29;20062;-68
2022/01/12 00:09:50;;;;;;;44.05;17.63;;;;;;;-5.49;100.00;100533.13;4807287;29;20087;-69
2022/01/12 00:12:17;;;;;;;46.53;15.47;;;;;;;-5.52;100.00;100541.06;4806922;29;20038;-68
2022/01/12 00:14:45;;;;;;;43.05;15.98;;;;;;;-5.54;100.00;100535.91;4807008;29;20034;-68
2022/01/12 00:17:11;;;;;;;43.72;16.20;;;;;;;-5.50;100.00;100534.03;4806809;29;20139;-68
2022/01/12 00:19:36;;;;;;;44.70;16.27;;;;;;;-5.57;100.00;100532.59;4806981;29;20062;-68
2022/01/12 00:22:03;;;;;;;39.60;15.57;;;;;;;-5.61;100.00;100538.81;4806677;29;20054;-68
2022/01/12 00:24:41;;;;;;;43.97;16.48;;;;;;;-5.67;100.00;100532.13;4806838;29;20035;-69
2022/01/12 00:35:25;;;;;;;40.78;14.25;;;;;;;-5.96;100.00;100533.25;4806658;29;20679;-68
2022/01/12 00:37:58;;;;;;;46.35;15.00;;;;;;;-6.00;100.00;100542.06;4805529;29;20027;-69
2022/01/12 00:40:23;;;;;;;41.83;14.82;;;;;;;-5.98;100.00;100537.66;4806519;29;20061;-68
2022/01/12 00:42:49;;;;;;;40.07;14.73;;;;;;;-6.05;100.00;100540.56;4806438;29;20184;-69
2022/01/12 00:45:15;;;;;;;42.07;14.73;;;;;;;-6.14;100.00;100543.53;4805124;29;20035;-68
2022/01/12 00:47:41;;;;;;;43.40;15.77;;;;;;;-6.19;100.00;100540.22;4806281;29;20034;-67
2022/01/12 00:50:07;;;;;;;45.83;15.15;;;;;;;-6.19;100.00;100535.88;4805293;29;20038;-68
2022/01/12 00:52:33;;;;;;;44.50;15.75;;;;;;;-6.24;100.00;100533.47;4806154;29;20088;-68
2022/01/12 00:54:58;;;;;;;39.63;15.43;;;;;;;-6.27;100.00;100543.13;4806205;29;20031;-68
2022/01/12 00:57:24;;;;;;;43.03;14.80;;;;;;;-6.27;100.00;100537.94;4806134;29;20039;-68
2022/01/12 00:59:49;;;;;;;46.40;16.17;;;;;;;-6.18;100.00;100534.13;4806093;29;20033;-69
2022/01/12 01:02:15;;;;;;;42.03;15.03;;;;;;;-6.19;100.00;100535.03;4806276;29;20496;-69
2022/01/12 01:04:40;;;;;;;47.30;17.27;;;;;;;-6.25;100.00;100539.56;4806044;29;20038;-68
2022/01/12 01:07:07;;;;;;;44.13;15.00;;;;;;;-6.13;100.00;100535.66;4806077;29;20034;-68
2022/01/12 01:09:35;;;;;;;44.65;16.08;;;;;;;-6.08;100.00;100530.28;4806056;29;20042;-68
2022/01/12 01:12:02;;;;;;;47.38;16.92;;;;;;;-6.24;100.00;100533.47;4805969;29;20435;-68
2022/01/12 01:14:46;;;;;;;49.05;16.52;;;;;;;-6.21;100.00;100528.13;4806195;29;20031;-68
2022/01/12 01:25:32;;;;;;;39.35;13.68;;;;;;;-6.22;100.00;100531.63;4805645;29;20167;-69
2022/01/12 01:28:00;;;;;;;41.13;14.73;;;;;;;-6.32;100.00;100538.09;4805998;29;20038;-68
2022/01/12 01:30:26;;;;;;;46.00;15.65;;;;;;;-6.23;100.00;100534.31;4805791;29;20035;-69
2022/01/12 01:32:51;;;;;;;44.80;15.53;;;;;;;-6.16;100.00;100530.56;4805567;29;20035;-69
2022/01/12 01:35:18;;;;;;;43.63;14.57;;;;;;;-6.17;100.00;100534.06;4805764;29;20030;-69
2022/01/12 01:37:44;;;;;;;43.97;14.75;;;;;;;-6.20;100.00;100526.38;4805621;29;20172;-68
2022/01/12 01:40:12;;;;;;;44.78;15.65;;;;;;;-6.24;100.00;100533.47;4805435;29;20031;-69
2022/01/12 01:42:56;;;;;;;43.83;15.90;;;;;;;-6.27;100.00;100525.78;4805394;29;20033;-69
2022/01/12 01:53:37;;;;;;;42.10;14.68;;;;;;;-6.24;100.00;100533.47;4805513;29;20033;-68
2022/01/12 01:56:03;;;;;;;40.58;14.90;;;;;;;-6.29;100.00;100530.19;4805142;29;20058;-68
2022/01/12 01:58:28;;;;;;;43.53;15.93;;;;;;;-6.25;100.00;100525.72;4805254;29;20450;-69
2022/01/12 02:00:54;;;;;;;43.33;15.93;;;;;;;-6.13;100.00;100530.47;4805332;29;20110;-68
2022/01/12 02:03:27;;;;;;;42.10;14.83;;;;;;;-6.04;100.00;100532.72;4805297;29;20022;-68
2022/01/12 02:05:53;;;;;;;;;;;;;;;-6.02;100.00;100535.25;4805963;29;20035;-67
2022/01/12 02:08:21;;;;;;;37.67;13.60;;;;;;;-5.94;100.00;100536.66;4805364;29;19925;-69
2022/01/12 02:10:52;;;;;;;38.30;14.68;;;;;;;-5.94;100.00;100528.00;4805153;29;20087;-68
2022/01/12 02:13:18;;;;;;;39.00;14.85;;;;;;;-5.99;100.00;100535.97;4805259;29;20043;-69
2022/01/12 02:15:45;;;;;;;42.93;15.30;;;;;;;-6.03;100.00;100530.97;4805123;29;20084;-68
2022/01/12 02:35:22;;;;;;;34.42;13.48;;;;;;;-6.33;100.00;100545.94;4804977;29;20587;-68
2022/01/12 02:40:25;;;;;;;36.45;13.30;;;;;;;-6.49;100.00;100537.00;4804965;29;20177;-68
2022/01/12 02:51:28;;;;;;;31.80;12.88;;;;;;;-6.84;100.00;100536.50;4784713;30;20171;-69
2022/01/12 02:53:54;;;;;;;38.90;12.57;;;;;;;-6.81;100.00;100528.63;4802521;29;20046;-68
2022/01/12 02:56:28;;;;;;;36.60;13.10;;;;;;;-6.81;100.00;100535.56;4804671;29;20042;-68
2022/01/12 02:58:59;;;;;;;37.35;14.05;;;;;;;-6.78;100.00;100538.03;4804713;29;20041;-69
2022/01/12 03:04:01;;;;;;;38.30;14.13;;;;;;;-6.68;100.00;100542.84;4808060;29;20389;-68
2022/01/12 03:06:31;;;;;;;36.83;14.30;;;;;;;-6.65;100.00;100534.94;4808178;29;20088;-69
2022/01/12 03:08:58;;;;;;;39.58;13.43;;;;;;;-6.71;100.00;100542.97;4807925;29;20217;-68
2022/01/12 03:11:26;;;;;;;40.03;14.13;;;;;;;-6.76;100.00;100542.28;4808193;29;20153;-68
2022/01/12 03:13:53;;;;;;;36.63;14.48;;;;;;;-6.89;100.00;100548.78;4808012;29;20641;-68
2022/01/12 03:16:23;;;;;;;43.38;15.35;;;;;;;-6.87;100.00;100548.75;4806559;29;20047;-68
2022/01/12 03:18:53;;;;;;;37.03;13.23;;;;;;;-6.82;100.00;100539.91;4807856;29;20045;-69
2022/01/12 03:21:22;;;;;;;37.72;14.38;;;;;;;-6.82;100.00;100537.31;4808014;29;20370;-69
2022/01/12 03:23:50;;;;;;;37.55;13.98;;;;;;;-6.85;100.00;100534.81;4807891;29;20447;-68
2022/01/12 03:26:16;;;;;;;40.53;13.52;;;;;;;-6.86;100.00;100540.91;4807602;29;20091;-69
2022/01/12 03:28:43;;;;;;;35.00;12.97;;;;;;;-6.96;100.00;100547.31;4807921;29;20435;-68
2022/01/12 03:38:47;;;;;;;39.50;14.35;;;;;;;-7.04;100.00;100544.97;4807628;29;20069;-68
2022/01/12 03:41:12;;;;;;;35.97;14.37;;;;;;;-7.08;100.00;100553.78;4808121;29;20453;-69
2022/01/12 03:43:39;;;;;;;37.93;14.20;;;;;;;-7.16;100.00;100545.41;4807593;29;20167;-68
2022/01/12 03:46:05;;;;;;;39.03;13.73;;;;;;;-7.18;100.00;100554.13;4807693;29;20035;-67
2022/01/12 03:48:30;;;;;;;37.73;13.00;;;;;;;-7.18;100.00;100546.34;4807206;29;20055;-67
2022/01/12 03:50:57;;;;;;;41.07;15.40;;;;;;;-7.15;100.00;100548.84;4807768;29;20478;-68
2022/01/12 03:53:23;;;;;;;36.67;14.15;;;;;;;-7.13;100.00;100544.44;4807255;29;20386;-68
2022/01/12 03:55:50;;;;;;;39.33;13.35;;;;;;;-7.15;100.00;100551.44;4807542;29;20031;-69
2022/01/12 03:58:15;;;;;;;40.60;14.88;;;;;;;-7.18;100.00;100548.94;4807637;29;20041;-66
2022/01/12 04:00:41;;;;;;;37.07;14.73;;;;;;;-7.21;100.00;100546.44;4807440;29;20401;-66
2022/01/12 04:03:10;;;;;;;40.60;15.00;;;;;;;-7.20;100.00;100542.94;4807261;29;20423;-68
2022/01/12 04:08:21;;;;;;;36.63;13.10;;;;;;;-7.30;100.00;100545.00;4807591;29;20113;-69
2022/01/12 04:10:50;;;;;;;39.88;14.40;;;;;;;-7.32;100.00;100539.84;4807264;29;20031;-66
2022/01/12 04:13:17;;;;;;;40.83;14.35;;;;;;;-7.20;100.00;100548.13;4820690;29;20035;-67
2022/01/12 04:15:45;;;;;;;41.33;14.50;;;;;;;-7.12;100.00;100551.31;4807090;29;20489;-67
2022/01/12 04:18:11;;;;;;;38.78;14.38;;;;;;;-6.95;100.00;100556.81;4807136;29;20035;-68
2022/01/12 04:20:46;;;;;;;40.70;13.90;;;;;;;-6.92;100.00;100558.47;4806921;29;20041;-66
2022/01/12 04:23:19;;;;;;;41.75;14.95;;;;;;;-6.99;100.00;100558.66;4805962;29;20270;-67
2022/01/12 04:25:47;;;;;;;35.97;14.70;;;;;;;-7.03;100.00;100558.81;4807005;29;20038;-69
2022/01/12 04:28:14;;;;;;;42.45;15.52;;;;;;;-7.08;100.00;100558.13;4806965;29;20087;-68
2022/01/12 04:30:40;;;;;;;39.75;14.85;;;;;;;-7.10;100.00;100563.38;4806962;29;20065;-67
2022/01/12 04:33:06;;;;;;;42.20;14.43;;;;;;;-7.12;100.00;100561.72;4805600;29;20062;-68
2022/01/12 04:35:37;;;;;;;39.97;14.80;;;;;;;-7.16;100.00;100568.78;4806760;29;20027;-67
2022/01/12 04:38:04;;;;;;;45.40;15.20;;;;;;;-7.24;100.00;100560.38;4807003;29;20493;-68
2022/01/12 04:40:30;;;;;;;43.00;14.65;;;;;;;-7.32;100.00;100559.78;4806724;29;20034;-68
2022/01/12 04:42:56;;;;;;;40.53;14.93;;;;;;;-7.41;100.00;100570.47;4807056;29;20050;-67
2022/01/12 04:50:23;;;;;;;43.72;15.35;;;;;;;-7.47;100.00;100562.84;4806776;29;20074;-68
2022/01/12 04:52:48;;;;;;;45.85;14.60;;;;;;;-7.45;100.00;100567.09;4806336;29;20077;-67
2022/01/12 04:55:14;;;;;;;41.30;14.20;;;;;;;-7.51;100.00;100569.06;4805264;29;20031;-68
2022/01/12 04:57:40;;;;;;;39.08;15.02;;;;;;;-7.54;100.00;100559.63;4806462;29;20030;-67
2022/01/12 05:00:15;;;;;;;44.87;16.13;;;;;;;-7.56;100.00;100570.94;4806306;29;20092;-68
2022/01/12 05:13:40;;;;;;;47.55;16.85;;;;;;;-7.33;100.00;100564.13;4806033;29;20153;-67
2022/01/12 05:16:06;;;;;;;43.17;15.90;;;;;;;-7.40;100.00;100572.16;4805903;29;20027;-68
2022/01/12 05:18:34;;;;;;;46.75;16.00;;;;;;;-7.46;100.00;100572.34;4804929;29;20087;-68
2022/01/12 05:21:01;;;;;;;48.75;16.65;;;;;;;-7.41;100.00;100575.66;4806058;29;20035;-68
2022/01/12 05:23:27;;;;;;;48.20;17.33;;;;;;;-7.40;100.00;100575.63;4803102;29;20058;-67
2022/01/12 05:25:53;;;;;;;52.85;17.52;;;;;;;-7.46;100.00;100582.72;4788092;30;20055;-67
2022/01/12 05:28:20;;;;;;;51.77;17.53;;;;;;;-7.39;100.00;100577.31;4787758;30;20397;-67
2022/01/12 05:30:47;;;;;;;48.67;18.15;;;;;;;-7.34;100.00;100580.59;4787741;30;20035;-67
2022/01/12 05:33:14;;;;;;;52.33;17.60;;;;;;;-7.30;100.00;100596.94;4787596;30;20130;-67
2022/01/12 05:35:41;;;;;;;45.80;16.98;;;;;;;-7.26;100.00;100602.88;4787559;29;20039;-68
2022/01/12 05:38:12;;;;;;;47.83;17.27;;;;;;;-7.28;100.00;100594.31;4787566;30;20047;-66
2022/01/12 05:40:39;;;;;;;42.17;16.70;;;;;;;-7.33;100.00;100599.63;4786626;30;20035;-68
2022/01/12 05:43:06;;;;;;;46.95;16.58;;;;;;;-7.35;100.00;100591.03;4787554;30;20024;-67
2022/01/12 05:45:33;;;;;;;47.30;16.10;;;;;;;-7.37;100.00;100596.28;4787461;30;20024;-67
2022/01/12 05:50:29;;;;;;;46.55;17.58;;;;;;;-7.52;100.00;100604.56;4787495;30;20035;-69
2022/01/12 05:52:55;;;;;;;44.90;15.65;;;;;;;-7.55;100.00;100601.19;4787669;30;20031;-68
2022/01/12 05:55:21;;;;;;;44.97;16.00;;;;;;;-7.61;100.00;100612.59;4787405;30;20129;-67
2022/01/12 05:57:48;;;;;;;46.57;16.07;;;;;;;-7.61;100.00;100615.19;4787516;30;20035;-67
2022/01/12 06:00:16;;;;;;;47.25;16.90;;;;;;;-7.63;100.00;100611.81;4786412;29;20035;-67
2022/01/12 06:02:42;;;;;;;40.22;15.48;;;;;;;-7.59;100.00;100609.97;4787699;29;20024;-67
2022/01/12 06:05:08;;;;;;;45.60;16.33;;;;;;;-7.62;100.00;100616.13;4787284;29;20172;-66
2022/01/12 06:07:34;;;;;;;47.33;16.80;;;;;;;-7.53;100.00;100615.84;4786270;30;20156;-66
2022/01/12 06:10:01;;;;;;;50.67;17.50;;;;;;;-7.44;100.00;100609.50;4787244;30;20117;-67
2022/01/12 06:12:27;;;;;;;54.90;18.10;;;;;;;-7.35;100.00;100615.25;4786981;30;20204;-66
2022/01/12 06:14:53;;;;;;;50.57;17.73;;;;;;;-7.26;100.00;100621.91;4787161;30;20043;-67
2022/01/12 06:17:18;;;;;;;58.17;18.33;;;;;;;-7.16;100.00;100615.53;4786969;30;20067;-66
2022/01/12 06:19:44;;;;;;;52.10;19.13;;;;;;;-7.07;100.00;100622.19;4787196;30;20619;-67
2022/01/12 06:22:09;;;;;;;50.70;19.17;;;;;;;-7.03;100.00;100616.81;4787323;30;20080;-67
2022/01/12 06:24:35;;;;;;;49.87;18.70;;;;;;;-7.01;100.00;100628.00;4787261;30;20035;-67
2022/01/12 06:27:03;;;;;;;53.20;18.87;;;;;;;-6.95;100.00;100629.56;4787425;30;20479;-66
2022/01/12 06:32:06;;;;;;;56.65;19.88;;;;;;;-6.76;100.00;100645.41;4786818;30;20031;-69
2022/01/12 06:34:32;;;;;;;49.25;19.25;;;;;;;-6.70;100.00;100643.47;4786182;29;20875;-63
2022/01/12 06:36:58;;;;;;;53.40;19.50;;;;;;;-6.65;100.00;100648.50;4802932;29;20046;-68
2022/01/12 06:39:25;;;;;;;52.07;18.67;;;;;;;-6.61;100.00;100631.91;4789932;30;20039;-67
2022/01/12 06:41:52;;;;;;;52.75;19.02;;;;;;;-6.52;100.00;100647.19;4789855;30;20019;-66
2022/01/12 06:44:22;;;;;;;56.58;19.65;;;;;;;-6.42;100.00;100658.09;4789900;30;20035;-66
2022/01/12 06:46:50;;;;;;;54.78;20.35;;;;;;;-6.37;100.00;100659.66;4789918;30;20569;-68
2022/01/12 06:49:16;;;;;;;53.33;18.45;;;;;;;-6.36;100.00;100660.50;4787440;29;20139;-67
2022/01/12 06:51:43;;;;;;;50.87;18.23;;;;;;;-6.27;100.00;100663.63;4788163;30;20039;-68
2022/01/12 06:54:09;;;;;;;48.47;17.95;;;;;;;-6.19;100.00;100665.97;4793944;29;20026;-67
2022/01/12 06:56:35;;;;;;;52.63;20.40;;;;;;;-6.10;100.00;100664.78;4809552;29;20042;-65
2022/01/12 06:59:01;;;;;;;44.93;18.77;;;;;;;-5.99;100.00;100668.69;4806702;29;20031;-66
2022/01/12 07:01:27;;;;;;;52.63;19.90;;;;;;;-5.96;100.00;100681.59;4806186;29;20440;-67
2022/01/12 07:03:52;;;;;;;45.47;18.93;;;;;;;-5.91;100.00;100674.50;4805879;29;20070;-66
2022/01/12 07:06:18;;;;;;;44.77;18.17;;;;;;;-5.88;100.00;100674.34;4806342;29;20485;-65
2022/01/12 07:08:44;;;;;;;51.47;18.77;;;;;;;-5.84;100.00;100682.88;4804633;29;20042;-66
2022/01/12 07:11:10;;;;;;;47.17;19.17;;;;;;;-5.79;100.00;100683.59;4804858;29;20041;-65
2022/01/12 07:13:36;;;;;;;48.28;18.55;;;;;;;-5.74;100.00;100684.25;4805763;29;20059;-65
2022/01/12 07:16:02;;;;;;;50.17;19.43;;;;;;;-5.63;100.00;100692.50;4806142;29;20030;-66
2022/01/12 07:18:29;;;;;;;45.13;18.42;;;;;;;-5.60;100.00;100701.97;4805725;29;20450;-66
2022/01/12 07:20:58;;;;;;;46.30;17.10;;;;;;;-5.59;100.00;100694.09;4805898;29;20062;-67
2022/01/12 07:23:24;;;;;;;43.30;16.83;;;;;;;-5.64;100.00;100710.78;4805903;29;20030;-66
2022/01/12 07:25:50;;;;;;;34.50;16.23;;;;;;;-5.55;100.00;100718.28;4805813;29;20412;-67
2022/01/12 07:28:16;;;;;;;42.38;15.30;;;;;;;-5.45;100.00;100726.63;4805921;29;20034;-66
2022/01/12 07:30:41;;;;;;;38.97;16.47;;;;;;;-5.34;100.00;100727.06;4805871;29;20478;-67
2022/01/12 07:33:07;;;;;;;35.83;15.10;;;;;;;-5.24;100.00;100726.66;4805617;29;20448;-67
2022/01/12 07:35:32;;;;;;;41.33;14.47;;;;;;;-5.24;100.00;100729.25;4805684;29;20084;-66
2022/01/12 07:37:58;;;;;;;40.87;16.07;;;;;;;-5.08;100.00;100726.06;4804771;29;20134;-67
2022/01/12 07:40:23;;;;;;;39.83;15.43;;;;;;;-4.99;100.00;100738.75;4804838;29;20077;-67
2022/01/12 07:42:51;;;;;;;37.17;14.60;;;;;;;-4.89;100.00;100748.75;4805421;29;20038;-67
2022/01/12 07:45:18;;;;;;;38.95;14.95;;;;;;;-4.85;100.00;100746.88;4805414;29;20110;-68
2022/01/12 07:47:43;;;;;;;36.85;14.98;;;;;;;-4.72;100.00;100753.28;4805014;29;20034;-68
2022/01/12 07:50:10;;;;;;;39.87;15.43;;;;;;;-4.63;100.00;100759.91;4762882;29;1306180;-67
2022/01/12 07:52:36;;;;;;;38.97;15.38;;;;;;;-4.63;100.00;100765.13;4806319;29;20134;-68
2022/01/12 07:55:02;;;;;;;37.53;15.17;;;;;;;-4.46;100.00;100766.16;4806333;29;20058;-68
2022/01/12 07:57:28;;;;;;;37.45;15.43;;;;;;;-4.50;100.00;100777.59;4806528;29;20445;-67
2022/01/12 07:59:54;;;;;;;38.27;16.50;;;;;;;-4.39;100.00;100785.88;4806384;29;20118;-67
2022/01/12 08:02:19;;;;;;;37.13;15.93;;;;;;;-4.31;100.00;100780.34;4806456;29;20037;-67
2022/01/12 08:04:46;;;;;;;34.63;14.20;;;;;;;-4.26;100.00;100777.53;4806450;29;20040;-66
2022/01/12 08:07:11;;;;;;;37.50;15.70;;;;;;;-4.43;100.00;100781.69;4806722;29;20092;-67
2022/01/12 08:09:38;;;;;;;41.60;16.70;;;;;;;-4.40;100.00;100780.72;4806490;29;20509;-67
2022/01/12 08:12:04;;;;;;;42.38;16.67;;;;;;;-4.12;100.00;100780.41;4806323;29;20386;-66
2022/01/12 08:14:31;;;;;;;39.53;15.67;;;;;;;-4.13;100.00;100783.94;4807043;29;20039;-67
2022/01/12 08:16:56;;;;;;;42.60;16.08;;;;;;;-4.06;100.00;100777.56;4807077;29;20787;-65
2022/01/12 08:19:23;;;;;;;35.27;14.67;;;;;;;-3.85;100.00;100781.03;4806799;29;20047;-65
2022/01/12 08:21:49;;;;;;;39.17;15.60;;;;;;;-3.65;100.00;100775.78;4806364;29;20035;-65
2022/01/12 08:24:14;;;;;;;37.57;14.97;;;;;;;-3.65;100.00;100773.19;4805121;29;20493;-66
2022/01/12 08:26:41;;;;;;;34.13;15.93;;;;;;;-3.61;100.00;100781.75;4805883;29;20397;-67
2022/01/12 08:29:10;;;;;;;36.53;16.60;;;;;;;-3.32;100.00;100784.75;4806111;29;20039;-67
2022/01/12 08:31:36;;;;;;;38.30;16.27;;;;;;;-3.16;100.00;100784.06;4806141;29;20039;-66
2022/01/12 08:34:02;;;;;;;36.93;17.10;;;;;;;-3.23;100.00;100787.88;4804759;29;20448;-62
2022/01/12 08:36:27;;;;;;;42.00;17.90;;;;;;;-3.32;100.00;100796.97;4804644;29;20035;-64
2022/01/12 08:38:53;;;;;;;43.87;18.17;;;;;;;-2.98;100.00;100786.69;4805764;29;20070;-64
2022/01/12 08:41:19;;;;;;;44.97;18.45;;;;;;;-2.86;100.00;100789.66;4819293;29;20405;-64
2022/01/12 08:43:45;;;;;;;52.60;20.17;;;;;;;-2.92;100.00;100791.63;4805238;29;20027;-63
2022/01/12 08:46:12;;;;;;;48.53;20.70;;;;;;;-2.90;100.00;100791.56;4805531;29;20042;-64
2022/01/12 08:48:38;;;;;;;44.78;18.85;;;;;;;-2.68;100.00;100786.19;4805419;29;20054;-63
2022/01/12 08:51:03;;;;;;;46.27;18.80;;;;;;;-2.65;100.00;100788.63;4805667;29;20061;-63
2022/01/12 08:53:29;;;;;;;41.60;18.07;;;;;;;-2.57;100.00;100786.53;4805515;29;20050;-63
2022/01/12 08:55:55;;;;;;;51.73;21.60;;;;;;;-2.43;100.00;100791.09;4805057;29;20400;-63
2022/01/12 08:58:20;;;;;;;47.67;20.00;;;;;;;-2.59;100.00;100785.75;4804460;29;20034;-64
2022/01/12 09:00:46;;;;;;;51.70;21.23;;;;;;;-2.36;100.00;100793.34;4805226;29;20365;-63
2022/01/12 09:03:12;;;;;;;53.60;21.98;;;;;;;-2.66;100.00;100787.81;4805254;29;20030;-63
2022/01/12 09:05:38;;;;;;;52.20;20.10;;;;;;;-2.34;100.00;100793.25;4804985;29;20508;-63
2022/01/12 09:08:05;;;;;;;52.43;22.63;;;;;;;-2.38;100.00;100786.47;4805091;29;20030;-63
2022/01/12 09:10:30;;;;;;;53.95;23.02;;;;;;;-2.26;100.00;100784.09;4805050;29;20057;-63
2022/01/12 09:12:56;;;;;;;52.17;22.00;;;;;;;-2.17;100.00;100781.94;4805256;29;20030;-64
2022/01/12 09:15:25;;;;;;;57.27;23.27;;;;;;;-1.99;100.00;100786.28;4803779;29;20031;-64
2022/01/12 09:17:52;;;;;;;51.83;22.15;;;;;;;-1.80;100.00;100778.34;4804821;29;20035;-63
2022/01/12 09:20:19;;;;;;;60.88;23.42;;;;;;;-1.53;100.00;100790.88;4805709;29;20058;-63
2022/01/12 09:22:44;;;;;;;57.90;23.73;;;;;;;-1.67;100.00;100789.88;4804358;29;20085;-64
2022/01/12 09:25:10;;;;;;;50.07;21.97;;;;;;;-1.49;100.00;100789.78;4804862;29;20067;-64
2022/01/12 09:27:39;;;;;;;50.60;21.58;;;;;;;-1.18;100.00;100799.53;4804673;29;20053;-64
2022/01/12 09:30:08;;;;;;;45.95;21.17;;;;;;;-1.17;100.00;100797.75;4804716;29;20034;-64
2022/01/12 09:32:33;;;;;;;48.72;20.08;;;;;;;-1.20;100.00;100792.66;4804423;29;20045;-63
2022/01/12 09:34:59;;;;;;;49.40;21.03;;;;;;;-1.21;100.00;100783.94;4804825;29;20039;-63
2022/01/12 09:37:24;;;;;;;43.13;19.40;;;;;;;-1.33;100.00;100787.22;4804712;29;20091;-64
2022/01/12 09:39:50;;;;;;;43.17;18.90;;;;;;;-1.62;100.00;100788.75;4804376;29;20278;-64
2022/01/12 09:42:16;;;;;;;48.97;21.53;;;;;;;-1.54;100.00;100781.31;4804593;29;20113;-64
2022/01/12 09:44:46;;;;;;;45.80;20.80;;;;;;;-1.43;100.00;100783.38;4804373;29;20041;-64
2022/01/12 09:47:12;;;;;;;49.75;21.67;;;;;;;-1.24;100.00;100778.00;4802702;29;20043;-64
2022/01/12 09:49:38;;;;;;;44.17;19.30;;;;;;;0.07;100.00;100784.63;4804194;29;20055;-64
2022/01/12 09:52:04;;;;;;;48.83;22.23;;;;;;;1.28;100.00;100773.66;4804385;29;20042;-65
2022/01/12 09:54:30;;;;;;;44.87;19.77;;;;;;;2.98;100.00;100777.13;4804372;29;20054;-65
2022/01/12 09:56:57;;;;;;;41.03;19.40;;;;;;;3.24;100.00;100780.53;4803363;29;20776;-65
2022/01/12 09:59:23;;;;;;;38.73;18.30;;;;;;;2.50;100.00;100778.75;4804559;29;20327;-64
2022/01/12 10:01:50;;;;;;;39.93;19.23;;;;;;;2.97;100.00;100769.31;4804156;29;20362;-65
2022/01/12 10:04:20;;;;;;;38.13;18.57;;;;;;;3.33;100.00;100772.00;4804372;29;20279;-65
2022/01/12 10:06:48;;;;;;;38.20;19.13;;;;;;;3.46;100.00;100769.31;4804287;29;20339;-65
2022/01/12 10:09:15;;;;;;;37.53;18.70;;;;;;;2.13;100.00;100772.47;4803996;29;20286;-65
2022/01/12 10:12:00;;;;;;;39.23;18.97;;;;;;;2.98;100.00;100763.94;4804023;29;20369;-65
2022/01/12 10:14:37;;;;;;;41.33;19.97;;;;;;;3.01;100.00;100763.69;4804255;29;20344;-65
2022/01/12 10:17:03;;;;;;;39.97;20.23;;;;;;;3.41;100.00;100776.72;4803888;29;20366;-66
2022/01/12 10:19:30;;;;;;;39.13;19.90;;;;;;;3.16;100.00;100780.25;4804261;29;20688;-66
2022/01/12 10:21:58;;;;;;;39.97;19.83;;;;;;;2.62;100.00;100772.63;4804113;29;20046;-65
2022/01/12 10:24:25;;;;;;;45.43;22.83;;;;;;;1.31;100.00;100780.50;4804221;29;20314;-65
2022/01/12 10:26:51;;;;;;;49.83;24.07;;;;;;;1.10;100.00;100772.19;4818079;29;20665;-65
2022/01/12 10:29:26;;;;;;;49.27;22.97;;;;;;;0.54;100.00;100758.13;4803091;29;20381;-65
2022/01/12 10:31:58;;;;;;;41.83;20.37;;;;;;;0.21;100.00;100770.69;4803952;29;20286;-65
2022/01/12 10:34:45;;;;;;;44.20;21.33;;;;;;;0.38;100.00;100767.03;4804245;29;20354;-65
2022/01/12 10:37:16;;;;;;;43.10;20.93;;;;;;;-0.16;100.00;100754.44;4804076;29;20289;-65
2022/01/12 10:39:44;;;;;;;44.33;19.33;;;;;;;0.33;100.00;100759.44;4803849;29;20286;-65
2022/01/12 10:42:12;;;;;;;41.13;19.97;;;;;;;0.92;100.00;100755.78;4802939;29;20278;-66
2022/01/12 10:44:42;;;;;;;40.00;19.10;;;;;;;0.44;100.00;100745.63;4802299;29;20295;-65
2022/01/12 10:47:09;;;;;;;37.60;19.43;;;;;;;0.67;100.00;100745.06;4803761;29;20274;-65
2022/01/12 10:49:37;;;;;;;37.40;17.90;;;;;;;1.23;100.00;100754.69;4803261;29;20301;-65
2022/01/12 10:52:06;;;;;;;35.63;17.23;;;;;;;1.20;100.00;100740.84;4803717;29;20397;-65
2022/01/12 10:54:45;;;;;;;35.40;17.10;;;;;;;1.53;100.00;100740.47;4803901;29;20757;-65
2022/01/12 10:57:35;;;;;;;33.90;16.13;;;;;;;1.51;100.00;100739.72;4803764;29;20749;-65
2022/01/12 11:00:03;;;;;;;31.33;15.77;;;;;;;1.14;100.00;100731.56;4801701;29;20821;-66
2022/01/12 11:02:29;;;;;;;39.03;16.97;;;;;;;1.04;100.00;100733.91;4803846;29;20306;-65
2022/01/12 11:04:58;;;;;;;33.97;16.10;;;;;;;1.41;100.00;100732.41;4803716;29;20365;-65
2022/01/12 11:07:27;;;;;;;31.63;15.77;;;;;;;0.67;100.00;100732.78;4804256;29;20890;-66
2022/01/12 11:09:57;;;;;;;34.17;16.10;;;;;;;1.00;100.00;100736.84;4803524;29;20302;-65
2022/01/12 11:12:23;;;;;;;32.13;16.13;;;;;;;1.03;100.00;100739.31;4802653;29;20377;-65
2022/01/12 11:14:49;;;;;;;34.63;16.50;;;;;;;0.74;100.00;100730.59;4803719;29;20331;-65
2022/01/12 11:17:15;;;;;;;34.60;16.83;;;;;;;0.82;100.00;100730.09;4803607;29;20679;-65
2022/01/12 11:19:48;;;;;;;35.33;17.07;;;;;;;1.06;100.00;100715.41;4803191;29;20035;-65
2022/01/12 11:22:25;;;;;;;32.53;15.50;;;;;;;0.91;100.00;100716.38;4804065;29;20279;-65
2022/01/12 11:24:53;;;;;;;33.20;16.90;;;;;;;1.58;100.00;100725.22;4812853;29;20271;-65
2022/01/12 11:27:24;;;;;;;31.73;16.00;;;;;;;2.02;100.00;100709.06;4795994;29;20295;-64
2022/01/12 11:29:50;;;;;;;31.77;15.40;;;;;;;1.96;100.00;100710.31;4788627;30;20267;-65
2022/01/12 11:32:23;;;;;;;33.03;15.33;;;;;;;2.03;100.00;100713.41;4787566;30;20301;-66
2022/01/12 11:35:01;;;;;;;23.48;12.60;;;;;;;0.70;100.00;100714.13;4805666;29;20125;-67
2022/01/12 11:37:27;;;;;;;22.97;12.67;;;;;;;0.70;100.00;100715.91;4813776;29;20042;-68
2022/01/12 11:39:53;;;;;;;20.03;11.13;;;;;;;0.13;100.00;100715.06;4811322;29;20338;-66
2022/01/12 11:42:20;;;;;;;22.10;12.23;;;;;;;1.13;100.00;100705.34;4806682;29;20087;-66
2022/01/12 11:44:45;;;;;;;21.53;11.47;;;;;;;0.34;100.00;100704.13;4807080;29;20042;-66
2022/01/12 11:47:15;;;;;;;22.30;12.20;;;;;;;1.03;100.00;100691.94;4812571;29;20637;-65
2022/01/12 11:49:47;;;;;;;21.07;11.47;;;;;;;0.36;100.00;100698.75;4811540;29;20050;-66
2022/01/12 11:52:14;;;;;;;20.90;11.10;;;;;;;0.18;100.00;100705.97;4809100;29;20645;-66
2022/01/12 11:54:43;;;;;;;22.20;12.33;;;;;;;1.92;100.00;100697.47;4814603;29;20326;-65
2022/01/12 11:57:18;;;;;;;19.93;11.23;;;;;;;2.25;100.00;100700.44;4813742;29;20274;-67
2022/01/12 11:59:54;;;;;;;20.83;11.80;;;;;;;2.09;100.00;100691.88;4806924;29;20270;-67
2022/01/12 12:02:31;;;;;;;20.10;11.57;;;;;;;1.67;100.00;100692.97;4813816;29;20328;-68
2022/01/12 12:04:59;;;;;;;19.17;11.30;;;;;;;2.14;100.00;100690.63;4809502;29;20356;-67
2022/01/12 12:07:26;;;;;;;20.03;11.33;;;;;;;1.51;100.00;100695.78;4816150;29;20346;-66
2022/01/12 12:09:58;;;;;;;19.90;11.50;;;;;;;1.78;100.00;100685.22;4813126;29;20283;-67
2022/01/12 12:12:30;;;;;;;20.73;12.15;;;;;;;1.33;100.00;100681.19;4811313;29;20287;-66
2022/01/12 12:14:58;;;;;;;19.57;11.50;;;;;;;2.70;100.00;100698.19;4812145;29;20023;-66
2022/01/12 12:17:26;;;;;;;23.23;12.00;;;;;;;2.82;100.00;100692.03;4809759;29;20782;-63
2022/01/12 12:19:52;;;;;;;21.17;12.43;;;;;;;4.19;100.00;100695.88;4805625;29;20336;-67
2022/01/12 12:22:20;;;;;;;20.90;11.57;;;;;;;3.69;100.00;100693.59;4805497;29;20270;-66
2022/01/12 12:25:10;;;;;;;19.53;11.50;;;;;;;4.08;100.00;100697.66;4805733;29;20623;-66
2022/01/12 12:27:38;;;;;;;23.70;11.90;;;;;;;3.52;100.00;100705.41;4805860;29;20267;-66
2022/01/12 12:30:06;;;;;;;19.43;12.30;;;;;;;2.08;100.00;100698.09;4804484;29;20279;-66
2022/01/12 12:32:37;;;;;;;23.20;12.70;;;;;;;2.93;100.00;100705.31;4804692;29;20287;-67